Lens, Belgium
Current Conditions -  °F | °C
As of 2:25 AM on Wednesday 26 Nov 2014 (Local Time) from EBCV Reporting Station
Broken Clouds Broken Clouds  
Wind Chill: 43°   Ceiling: 15000
Heat Index: 43°   Visibility: 6mi
Dew Point: 39°   Wind: 3mph
Humidity: 87%   Direction: 80°E
Pressure: 29.97"   Gusts: NA
Location:  50.56°N, 3.9°E
Report Text: EBCV 260125Z AUTO 08003KT 9999 SCT095/// BKN150/// 06/04 Q1015 BLU
Loading
Personal Weather Stations






























Interactive Weather Map New forecast layout! Learn more

10-Day Weather Forecast

Advertisements
Track Severe Weather on mobile